createdAt,value
2022-12-12T00:02:17.367Z,90.80
2022-12-12T00:07:49.015Z,89.03
2022-12-12T00:13:24.618Z,89.89
2022-12-12T00:16:14.236Z,89.61
2022-12-12T00:21:50.506Z,91.80
2022-12-12T00:27:25.402Z,92.64
2022-12-12T00:33:03.970Z,94.67
2022-12-12T00:38:33.720Z,94.06
2022-12-12T00:44:03.028Z,93.73
2022-12-12T00:49:33.892Z,92.79
2022-12-12T00:52:22.244Z,91.64
2022-12-12T01:00:34.678Z,90.58
2022-12-12T01:03:24.642Z,90.89
2022-12-12T01:06:14.029Z,89.75
2022-12-12T01:11:44.933Z,89.15
2022-12-12T01:17:20.489Z,88.76
2022-12-12T01:20:14.119Z,88.16
2022-12-12T01:25:50.664Z,87.64
2022-12-12T01:31:21.732Z,86.00
2022-12-12T01:36:56.821Z,88.70
2022-12-12T01:42:33.910Z,92.05
2022-12-12T01:46:24.306Z,93.32
2022-12-12T01:52:14.774Z,93.21
2022-12-12T01:58:01.838Z,91.97
2022-12-12T02:03:39.585Z,89.08
2022-12-12T02:09:16.460Z,90.09
2022-12-12T02:14:54.518Z,91.68
2022-12-12T02:24:12.471Z,93.86
2022-12-12T02:30:23.583Z,94.36
2022-12-12T02:33:28.892Z,94.20
2022-12-12T02:39:10.613Z,91.64
2022-12-12T02:50:26.060Z,90.73
2022-12-12T02:56:06.129Z,88.84
2022-12-12T03:07:37.421Z,88.39
2022-12-12T03:13:29.676Z,90.08
2022-12-12T03:21:52.835Z,90.82
2022-12-12T03:27:25.693Z,90.28
2022-12-12T03:33:00.734Z,90.65
2022-12-12T03:35:52.111Z,90.24
2022-12-12T03:41:24.641Z,92.43
2022-12-12T03:47:02.772Z,93.27
2022-12-12T03:55:30.531Z,95.47
2022-12-12T04:01:00.635Z,95.76
2022-12-12T04:03:52.529Z,95.99
2022-12-12T04:06:44.946Z,95.74
2022-12-12T04:12:42.884Z,94.80
2022-12-12T04:18:41.825Z,91.37
2022-12-12T04:21:52.003Z,92.30
2022-12-12T04:27:31.070Z,92.43
2022-12-12T04:35:51.457Z,92.22
2022-12-12T04:41:28.404Z,91.15
2022-12-12T04:47:08.135Z,91.51
2022-12-12T04:52:48.237Z,90.87
2022-12-12T04:55:38.880Z,90.71
2022-12-12T05:04:03.312Z,91.88
2022-12-12T05:09:40.332Z,88.95
2022-12-12T05:15:09.299Z,89.33
2022-12-12T05:20:50.026Z,89.39
2022-12-12T05:26:30.951Z,87.77
2022-12-12T05:31:59.685Z,85.11
2022-12-12T05:37:34.162Z,85.73
2022-12-12T05:43:07.004Z,86.26
2022-12-12T05:48:44.393Z,84.81
2022-12-12T05:54:20.394Z,86.75
2022-12-12T05:57:09.164Z,86.59
2022-12-12T06:02:44.648Z,86.53
2022-12-12T06:11:31.871Z,88.44
2022-12-12T06:14:23.001Z,88.39
2022-12-12T06:20:02.622Z,89.95
2022-12-12T06:25:36.476Z,89.90
2022-12-12T06:31:11.622Z,91.09
2022-12-12T06:36:43.882Z,90.50
2022-12-12T06:39:32.127Z,89.74
2022-12-12T06:45:01.919Z,85.72
2022-12-12T06:47:52.381Z,85.61
2022-12-12T06:53:25.219Z,87.02
2022-12-12T06:56:16.132Z,86.16
2022-12-12T06:59:05.234Z,86.51
2022-12-12T07:04:54.046Z,88.00
2022-12-12T07:10:30.580Z,86.84
2022-12-12T07:13:19.252Z,86.12
2022-12-12T07:18:59.167Z,87.33
2022-12-12T07:21:48.812Z,88.79
2022-12-12T07:27:25.261Z,87.82
2022-12-12T07:30:14.839Z,89.11
2022-12-12T07:35:52.169Z,87.65
2022-12-12T07:41:33.246Z,89.00
2022-12-12T07:47:05.260Z,88.28
2022-12-12T07:52:42.837Z,86.97
2022-12-12T07:58:29.891Z,88.40
2022-12-12T08:01:20.109Z,87.13
2022-12-12T08:04:08.554Z,86.02
2022-12-12T08:07:03.950Z,86.08
2022-12-12T08:09:48.807Z,86.55
2022-12-12T08:12:40.164Z,86.02
2022-12-12T08:18:16.842Z,85.47
2022-12-12T08:23:52.322Z,87.75
2022-12-12T08:29:22.912Z,87.81
2022-12-12T08:32:11.794Z,88.34
2022-12-12T08:35:00.896Z,87.61
2022-12-12T08:40:29.576Z,86.67
2022-12-12T08:46:03.671Z,87.71
2022-12-12T08:48:52.342Z,86.74
2022-12-12T08:54:26.426Z,87.80
2022-12-12T09:00:20.321Z,88.62
2022-12-12T09:05:58.644Z,87.69
2022-12-12T09:32:19.958Z,89.07
2022-12-12T09:37:54.056Z,88.83
2022-12-12T09:43:29.981Z,88.53
2022-12-12T09:49:16.579Z,89.33
2022-12-12T09:54:50.323Z,90.33
2022-12-12T10:06:52.352Z,89.38
2022-12-12T10:09:49.663Z,88.58
2022-12-12T10:15:29.572Z,90.15
2022-12-12T10:21:13.821Z,88.90
2022-12-12T10:24:12.501Z,88.48
2022-12-12T10:29:51.596Z,87.66
2022-12-12T10:35:33.109Z,86.44
2022-12-12T10:44:20.425Z,83.85
2022-12-12T10:49:59.050Z,85.07
2022-12-12T10:52:47.743Z,86.58
2022-12-12T10:58:30.180Z,87.54
2022-12-12T11:02:00.348Z,86.97
2022-12-12T11:04:19.558Z,86.68
2022-12-12T11:09:48.606Z,83.69
2022-12-12T11:15:21.090Z,84.82
2022-12-12T11:23:34.770Z,85.86
2022-12-12T11:29:06.024Z,84.26
2022-12-12T11:34:36.629Z,83.69
2022-12-12T11:43:20.217Z,83.85
2022-12-12T11:49:18.895Z,86.58
2022-12-12T11:55:13.114Z,86.83
2022-12-12T12:01:00.654Z,89.41
2022-12-12T12:07:03.519Z,88.16
2022-12-12T12:12:44.813Z,88.57
2022-12-12T12:18:34.157Z,90.55
2022-12-12T12:24:42.057Z,89.20
2022-12-12T12:43:58.872Z,88.03
2022-12-12T12:46:52.907Z,88.73
2022-12-12T12:52:36.327Z,89.23
2022-12-12T12:58:06.893Z,88.73
2022-12-12T13:03:44.905Z,87.16
2022-12-12T13:09:49.807Z,88.12
2022-12-12T13:12:43.488Z,87.31
2022-12-12T13:15:49.016Z,86.76
2022-12-12T13:21:40.528Z,87.36
2022-12-12T13:27:35.851Z,86.17
2022-12-12T13:33:22.254Z,86.18
2022-12-12T13:39:04.904Z,85.55
2022-12-12T13:44:45.508Z,84.94
2022-12-12T13:50:42.037Z,86.86
2022-12-12T13:53:30.343Z,87.28
2022-12-12T13:59:35.634Z,86.20
2022-12-12T14:05:28.408Z,85.47
2022-12-12T14:08:29.448Z,84.08
2022-12-12T14:17:21.186Z,83.71
2022-12-12T14:23:27.419Z,86.04
2022-12-12T14:26:50.545Z,85.87
2022-12-12T14:32:41.529Z,84.56
2022-12-12T14:38:22.627Z,86.91
2022-12-12T14:41:15.100Z,87.14
2022-12-12T14:46:49.276Z,85.41
2022-12-12T14:49:37.572Z,85.82
2022-12-12T14:52:27.747Z,85.87
2022-12-12T14:58:05.576Z,85.78
2022-12-12T15:00:56.368Z,84.60
2022-12-12T15:06:42.707Z,84.65
2022-12-12T15:09:32.072Z,84.09
2022-12-12T15:15:24.576Z,84.08
2022-12-12T15:21:01.110Z,84.25
2022-12-12T15:26:38.470Z,85.03
2022-12-12T15:32:15.852Z,86.15
2022-12-12T15:35:07.863Z,86.57
2022-12-12T15:40:43.095Z,85.07
2022-12-12T15:43:35.291Z,84.68
2022-12-12T15:46:23.896Z,84.84
2022-12-12T15:49:38.236Z,85.33
2022-12-12T15:55:30.174Z,86.82
2022-12-12T15:58:29.264Z,86.84
2022-12-12T16:01:22.120Z,87.75
2022-12-12T16:04:27.964Z,88.23
2022-12-12T16:10:26.135Z,89.83
2022-12-12T16:16:35.806Z,89.59
2022-12-12T16:22:21.020Z,89.90
2022-12-12T16:27:59.259Z,90.71
2022-12-12T16:33:41.999Z,90.08
2022-12-12T16:39:34.358Z,90.98
2022-12-12T16:45:12.364Z,90.94
2022-12-12T16:50:41.878Z,90.84
2022-12-12T16:53:30.464Z,90.26
2022-12-12T16:59:10.173Z,90.13
2022-12-12T17:01:58.088Z,89.73
2022-12-12T17:07:37.502Z,89.66
2022-12-12T17:10:26.922Z,89.86
2022-12-12T17:15:58.906Z,90.17
2022-12-12T17:21:27.373Z,90.51
2022-12-12T17:27:05.365Z,92.19
2022-12-12T17:32:36.770Z,90.40
2022-12-12T17:35:26.939Z,91.00
2022-12-12T17:38:16.549Z,90.55
2022-12-12T17:41:07.569Z,90.71
2022-12-12T17:46:46.860Z,90.72
2022-12-12T17:52:17.756Z,90.87
2022-12-12T17:55:53.604Z,91.29
2022-12-12T17:57:57.176Z,91.43
2022-12-12T18:00:45.735Z,91.13
2022-12-12T18:03:33.623Z,91.38
2022-12-12T18:09:12.460Z,92.35
2022-12-12T18:12:00.896Z,91.84
2022-12-12T18:17:34.018Z,93.33
2022-12-12T18:20:26.613Z,93.31
2022-12-12T18:23:12.163Z,93.63
2022-12-12T18:26:05.118Z,93.78
2022-12-12T18:31:46.530Z,93.89
2022-12-12T18:34:35.461Z,94.44
2022-12-12T18:40:14.392Z,95.43
2022-12-12T18:48:33.096Z,93.97
2022-12-12T18:56:57.336Z,93.93
2022-12-12T19:05:18.811Z,95.59
2022-12-12T19:11:22.109Z,96.89
2022-12-12T19:16:58.636Z,97.93
2022-12-12T19:22:50.499Z,98.78
2022-12-12T19:31:08.393Z,98.37
2022-12-12T19:36:44.747Z,97.78
2022-12-12T19:39:35.077Z,98.25
2022-12-12T19:42:23.773Z,99.41
2022-12-12T19:45:12.769Z,99.63
2022-12-12T19:48:01.162Z,98.63
2022-12-12T19:56:35.270Z,98.39
2022-12-12T20:02:23.211Z,96.30
2022-12-12T20:07:54.102Z,96.27
2022-12-12T20:13:30.979Z,96.51
2022-12-12T20:19:08.307Z,97.55
2022-12-12T20:22:01.868Z,97.40
2022-12-12T20:24:46.944Z,95.92
2022-12-12T20:27:35.269Z,95.59
2022-12-12T20:30:24.659Z,95.14
2022-12-12T20:36:03.060Z,94.79
2022-12-12T20:38:51.433Z,94.70
2022-12-12T20:41:41.433Z,95.09
2022-12-12T20:47:16.391Z,95.97
2022-12-12T20:52:50.236Z,96.12
2022-12-12T20:58:24.521Z,96.67
2022-12-12T21:04:04.059Z,97.19
2022-12-12T21:09:36.612Z,96.29
2022-12-12T21:12:28.343Z,96.11
2022-12-12T21:15:17.868Z,96.66
2022-12-12T21:18:07.702Z,96.17
2022-12-12T21:23:36.617Z,96.95
2022-12-12T21:26:28.939Z,96.42
2022-12-12T21:32:18.279Z,96.52
2022-12-12T21:35:10.076Z,96.20
2022-12-12T21:41:05.959Z,97.11
2022-12-12T21:43:55.333Z,97.06
2022-12-12T21:49:28.029Z,96.50
2022-12-12T21:55:10.109Z,97.26
2022-12-12T21:58:00.018Z,97.53
2022-12-12T22:00:51.430Z,97.28
2022-12-12T22:06:28.621Z,96.84
2022-12-12T22:12:04.273Z,96.35
2022-12-12T22:14:47.162Z,96.11
2022-12-12T22:17:35.576Z,96.42
2022-12-12T22:23:26.779Z,96.29
2022-12-12T22:26:17.477Z,95.54
2022-12-12T22:29:08.571Z,94.95
2022-12-12T22:31:56.697Z,96.02
2022-12-12T22:37:47.516Z,96.23
2022-12-12T22:40:40.881Z,95.75
2022-12-12T22:43:30.506Z,96.11
2022-12-12T22:49:06.947Z,95.03
2022-12-12T22:51:57.313Z,94.79
2022-12-12T23:00:18.748Z,94.88
2022-12-12T23:05:57.033Z,94.86
2022-12-12T23:08:47.516Z,94.23
2022-12-12T23:14:26.058Z,95.24
2022-12-12T23:19:53.627Z,94.68
2022-12-12T23:22:44.466Z,95.02
2022-12-12T23:28:18.527Z,95.42
2022-12-12T23:31:10.450Z,95.47
2022-12-12T23:36:46.782Z,95.00
2022-12-12T23:39:36.036Z,95.42
2022-12-12T23:45:17.525Z,94.94
2022-12-12T23:50:45.354Z,94.13
2022-12-12T23:56:21.989Z,95.26
2022-12-12T23:59:17.087Z,95.21
